sensor_id;sensor_type;location;lat;lon;timestamp;pressure;altitude;pressure_sealevel;temperature
45701;BMP280;36277;32.852;-116.998;2022-11-15T00:02:04;100341.44;;;26.03
45701;BMP280;36277;32.852;-116.998;2022-11-15T00:04:30;100344.03;;;26.05
45701;BMP280;36277;32.852;-116.998;2022-11-15T00:06:56;100357.47;;;26.08
45701;BMP280;36277;32.852;-116.998;2022-11-15T00:09:22;100345.34;;;26.09
45701;BMP280;36277;32.852;-116.998;2022-11-15T00:11:49;100358.97;;;26.10
45701;BMP280;36277;32.852;-116.998;2022-11-15T00:14:15;100355.13;;;26.11
45701;BMP280;36277;32.852;-116.998;2022-11-15T00:16:41;100358.78;;;26.12
45701;BMP280;36277;32.852;-116.998;2022-11-15T00:19:07;100351.31;;;26.12
45701;BMP280;36277;32.852;-116.998;2022-11-15T00:21:33;100359.41;;;26.14
45701;BMP280;36277;32.852;-116.998;2022-11-15T00:23:59;100350.25;;;26.13
45701;BMP280;36277;32.852;-116.998;2022-11-15T00:26:26;100349.00;;;26.16
45701;BMP280;36277;32.852;-116.998;2022-11-15T00:28:52;100352.63;;;26.16
45701;BMP280;36277;32.852;-116.998;2022-11-15T00:31:18;100350.66;;;26.10
45701;BMP280;36277;32.852;-116.998;2022-11-15T00:33:45;100348.69;;;26.04
45701;BMP280;36277;32.852;-116.998;2022-11-15T00:36:11;100350.78;;;26.02
45701;BMP280;36277;32.852;-116.998;2022-11-15T00:38:39;100360.59;;;25.98
45701;BMP280;36277;32.852;-116.998;2022-11-15T00:41:07;100351.22;;;25.99
45701;BMP280;36277;32.852;-116.998;2022-11-15T00:43:33;100358.41;;;25.94
45701;BMP280;36277;32.852;-116.998;2022-11-15T00:46:00;100357.56;;;25.93
45701;BMP280;36277;32.852;-116.998;2022-11-15T00:48:28;100357.28;;;25.67
45701;BMP280;36277;32.852;-116.998;2022-11-15T00:50:54;100366.88;;;25.50
45701;BMP280;36277;32.852;-116.998;2022-11-15T00:53:20;100361.56;;;25.49
45701;BMP280;36277;32.852;-116.998;2022-11-15T00:55:47;100366.50;;;25.53
45701;BMP280;36277;32.852;-116.998;2022-11-15T00:58:13;100366.97;;;25.57
45701;BMP280;36277;32.852;-116.998;2022-11-15T01:00:39;100365.06;;;25.57
45701;BMP280;36277;32.852;-116.998;2022-11-15T01:03:06;100367.41;;;25.60
45701;BMP280;36277;32.852;-116.998;2022-11-15T01:05:32;100362.75;;;25.61
45701;BMP280;36277;32.852;-116.998;2022-11-15T01:07:58;100359.78;;;25.62
45701;BMP280;36277;32.852;-116.998;2022-11-15T01:10:24;100374.28;;;25.64
45701;BMP280;36277;32.852;-116.998;2022-11-15T01:12:51;100368.34;;;25.67
45701;BMP280;36277;32.852;-116.998;2022-11-15T01:15:18;100370.06;;;25.68
45701;BMP280;36277;32.852;-116.998;2022-11-15T01:17:44;100372.81;;;25.68
45701;BMP280;36277;32.852;-116.998;2022-11-15T01:20:10;100369.84;;;25.70
45701;BMP280;36277;32.852;-116.998;2022-11-15T01:22:37;100374.31;;;25.71
45701;BMP280;36277;32.852;-116.998;2022-11-15T01:25:03;100366.91;;;25.71
45701;BMP280;36277;32.852;-116.998;2022-11-15T01:27:29;100373.50;;;25.70
45701;BMP280;36277;32.852;-116.998;2022-11-15T01:29:56;100374.31;;;25.71
45701;BMP280;36277;32.852;-116.998;2022-11-15T01:32:22;100389.88;;;25.72
45701;BMP280;36277;32.852;-116.998;2022-11-15T01:34:48;100382.44;;;25.72
45701;BMP280;36277;32.852;-116.998;2022-11-15T01:37:14;100388.81;;;25.73
45701;BMP280;36277;32.852;-116.998;2022-11-15T01:39:40;100380.72;;;25.71
45701;BMP280;36277;32.852;-116.998;2022-11-15T01:42:12;100393.06;;;25.75
45701;BMP280;36277;32.852;-116.998;2022-11-15T01:44:43;100395.59;;;25.70
45701;BMP280;36277;32.852;-116.998;2022-11-15T01:47:37;100395.22;;;25.73
45701;BMP280;36277;32.852;-116.998;2022-11-15T01:50:10;100402.84;;;25.71
45701;BMP280;36277;32.852;-116.998;2022-11-15T01:52:39;100394.72;;;25.70
45701;BMP280;36277;32.852;-116.998;2022-11-15T01:55:19;100401.97;;;25.71
45701;BMP280;36277;32.852;-116.998;2022-11-15T01:57:53;100405.34;;;25.66
45701;BMP280;36277;32.852;-116.998;2022-11-15T02:00:21;100402.97;;;25.63
45701;BMP280;36277;32.852;-116.998;2022-11-15T02:02:47;100406.19;;;25.67
45701;BMP280;36277;32.852;-116.998;2022-11-15T02:05:13;100406.56;;;25.64
45701;BMP280;36277;32.852;-116.998;2022-11-15T02:07:39;100402.75;;;25.65
45701;BMP280;36277;32.852;-116.998;2022-11-15T02:10:09;100411.53;;;25.68
45701;BMP280;36277;32.852;-116.998;2022-11-15T02:12:36;100404.69;;;25.64
45701;BMP280;36277;32.852;-116.998;2022-11-15T02:15:05;100405.34;;;25.66
45701;BMP280;36277;32.852;-116.998;2022-11-15T02:28:53;100415.47;;;25.59
45701;BMP280;36277;32.852;-116.998;2022-11-15T02:34:05;100397.38;;;25.57
45701;BMP280;36277;32.852;-116.998;2022-11-15T02:37:56;100390.03;;;25.49
45701;BMP280;36277;32.852;-116.998;2022-11-15T02:40:23;100396.22;;;25.51
45701;BMP280;36277;32.852;-116.998;2022-11-15T02:42:57;100386.22;;;25.50
45701;BMP280;36277;32.852;-116.998;2022-11-15T02:45:53;100386.06;;;25.52
45701;BMP280;36277;32.852;-116.998;2022-11-15T02:48:23;100385.59;;;25.48
45701;BMP280;36277;32.852;-116.998;2022-11-15T02:50:51;100385.59;;;25.48
45701;BMP280;36277;32.852;-116.998;2022-11-15T02:53:20;100390.25;;;25.48
45701;BMP280;36277;32.852;-116.998;2022-11-15T02:55:51;100384.72;;;25.48
45701;BMP280;36277;32.852;-116.998;2022-11-15T03:03:56;100394.94;;;25.47
45701;BMP280;36277;32.852;-116.998;2022-11-15T03:09:29;100385.13;;;25.45
45701;BMP280;36277;32.852;-116.998;2022-11-15T03:12:08;100387.44;;;25.41
45701;BMP280;36277;32.852;-116.998;2022-11-15T03:19:53;100396.09;;;25.38
45701;BMP280;36277;32.852;-116.998;2022-11-15T03:22:22;100392.69;;;25.36
45701;BMP280;36277;32.852;-116.998;2022-11-15T03:24:54;100396.50;;;25.35
45701;BMP280;36277;32.852;-116.998;2022-11-15T03:27:25;100392.91;;;25.35
45701;BMP280;36277;32.852;-116.998;2022-11-15T03:29:58;100394.56;;;25.36
45701;BMP280;36277;32.852;-116.998;2022-11-15T03:32:31;100393.94;;;25.34
45701;BMP280;36277;32.852;-116.998;2022-11-15T03:35:03;100402.41;;;25.32
45701;BMP280;36277;32.852;-116.998;2022-11-15T03:37:44;100391.34;;;25.32
45701;BMP280;36277;32.852;-116.998;2022-11-15T03:40:12;100393.84;;;25.27
45701;BMP280;36277;32.852;-116.998;2022-11-15T03:43:03;100388.53;;;25.26
45701;BMP280;36277;32.852;-116.998;2022-11-15T03:45:54;100398.69;;;25.26
45701;BMP280;36277;32.852;-116.998;2022-11-15T03:48:25;100391.00;;;25.21
45701;BMP280;36277;32.852;-116.998;2022-11-15T03:50:53;100396.53;;;25.21
45701;BMP280;36277;32.852;-116.998;2022-11-15T03:53:20;100392.94;;;25.21
45701;BMP280;36277;32.852;-116.998;2022-11-15T03:55:46;100399.50;;;25.20
45701;BMP280;36277;32.852;-116.998;2022-11-15T03:58:12;100400.56;;;25.19
45701;BMP280;36277;32.852;-116.998;2022-11-15T04:00:39;100400.72;;;25.17
45701;BMP280;36277;32.852;-116.998;2022-11-15T04:03:05;100409.91;;;25.18
45701;BMP280;36277;32.852;-116.998;2022-11-15T04:05:33;100414.53;;;25.17
45701;BMP280;36277;32.852;-116.998;2022-11-15T04:07:59;100410.28;;;25.15
45701;BMP280;36277;32.852;-116.998;2022-11-15T04:10:25;100419.63;;;25.14
45701;BMP280;36277;32.852;-116.998;2022-11-15T04:12:51;100418.72;;;25.13
45701;BMP280;36277;32.852;-116.998;2022-11-15T04:15:22;100421.31;;;25.15
45701;BMP280;36277;32.852;-116.998;2022-11-15T04:17:53;100414.94;;;25.14
45701;BMP280;36277;32.852;-116.998;2022-11-15T04:20:28;100415.09;;;25.13
45701;BMP280;36277;32.852;-116.998;2022-11-15T04:23:18;100416.53;;;25.09
45701;BMP280;36277;32.852;-116.998;2022-11-15T04:26:06;100424.53;;;25.04
45701;BMP280;36277;32.852;-116.998;2022-11-15T04:28:34;100428.34;;;25.03
45701;BMP280;36277;32.852;-116.998;2022-11-15T04:31:00;100433.88;;;25.03
45701;BMP280;36277;32.852;-116.998;2022-11-15T04:33:26;100437.69;;;25.02
45701;BMP280;36277;32.852;-116.998;2022-11-15T04:35:52;100437.22;;;24.98
45701;BMP280;36277;32.852;-116.998;2022-11-15T04:38:37;100442.94;;;24.97
45701;BMP280;36277;32.852;-116.998;2022-11-15T04:41:03;100445.72;;;24.97
45701;BMP280;36277;32.852;-116.998;2022-11-15T04:43:29;100450.38;;;24.96
45701;BMP280;36277;32.852;-116.998;2022-11-15T04:45:56;100449.69;;;24.94
45701;BMP280;36277;32.852;-116.998;2022-11-15T04:48:22;100449.91;;;24.93
45701;BMP280;36277;32.852;-116.998;2022-11-15T04:50:49;100449.22;;;24.91
45701;BMP280;36277;32.852;-116.998;2022-11-15T04:53:15;100452.38;;;24.88
45701;BMP280;36277;32.852;-116.998;2022-11-15T04:55:45;100456.84;;;24.89
45701;BMP280;36277;32.852;-116.998;2022-11-15T04:58:11;100447.59;;;24.82
45701;BMP280;36277;32.852;-116.998;2022-11-15T05:00:37;100454.16;;;24.81
45701;BMP280;36277;32.852;-116.998;2022-11-15T05:03:05;100457.97;;;24.80
45701;BMP280;36277;32.852;-116.998;2022-11-15T05:05:49;100454.75;;;24.76
45701;BMP280;36277;32.852;-116.998;2022-11-15T05:08:16;100453.88;;;24.76
45701;BMP280;36277;32.852;-116.998;2022-11-15T05:10:42;100454.94;;;24.75
45701;BMP280;36277;32.852;-116.998;2022-11-15T05:13:08;100455.13;;;24.73
45701;BMP280;36277;32.852;-116.998;2022-11-15T05:15:34;100461.03;;;24.70
45701;BMP280;36277;32.852;-116.998;2022-11-15T05:18:00;100460.19;;;24.70
45701;BMP280;36277;32.852;-116.998;2022-11-15T05:20:27;100452.94;;;24.69
45701;BMP280;36277;32.852;-116.998;2022-11-15T05:22:53;100457.81;;;24.67
45701;BMP280;36277;32.852;-116.998;2022-11-15T05:25:22;100468.16;;;24.65
45701;BMP280;36277;32.852;-116.998;2022-11-15T05:27:48;100465.78;;;24.62
45701;BMP280;36277;32.852;-116.998;2022-11-15T05:30:15;100460.44;;;24.60
45701;BMP280;36277;32.852;-116.998;2022-11-15T05:32:42;100474.06;;;24.62
45701;BMP280;36277;32.852;-116.998;2022-11-15T05:35:27;100474.06;;;24.62
45701;BMP280;36277;32.852;-116.998;2022-11-15T05:37:56;100482.72;;;24.59
45701;BMP280;36277;32.852;-116.998;2022-11-15T05:40:23;100484.63;;;24.58
45701;BMP280;36277;32.852;-116.998;2022-11-15T05:42:50;100485.84;;;24.56
45701;BMP280;36277;32.852;-116.998;2022-11-15T05:45:16;100477.94;;;24.53
45701;BMP280;36277;32.852;-116.998;2022-11-15T05:47:43;100481.75;;;24.52
45701;BMP280;36277;32.852;-116.998;2022-11-15T05:50:15;100484.50;;;24.52
45701;BMP280;36277;32.852;-116.998;2022-11-15T05:52:43;100486.28;;;24.45
45701;BMP280;36277;32.852;-116.998;2022-11-15T05:55:10;100480.09;;;24.43
45701;BMP280;36277;32.852;-116.998;2022-11-15T05:57:36;100478.56;;;24.40
45701;BMP280;36277;32.852;-116.998;2022-11-15T06:00:04;100483.03;;;24.41
45701;BMP280;36277;32.852;-116.998;2022-11-15T06:02:30;100479.97;;;24.36
45701;BMP280;36277;32.852;-116.998;2022-11-15T06:04:57;100480.19;;;24.35
45701;BMP280;36277;32.852;-116.998;2022-11-15T06:07:23;100479.50;;;24.33
45701;BMP280;36277;32.852;-116.998;2022-11-15T06:09:49;100481.59;;;24.31
45701;BMP280;36277;32.852;-116.998;2022-11-15T06:12:15;100486.44;;;24.29
45701;BMP280;36277;32.852;-116.998;2022-11-15T06:14:42;100482.31;;;24.25
45701;BMP280;36277;32.852;-116.998;2022-11-15T06:17:08;100486.13;;;24.24
45701;BMP280;36277;32.852;-116.998;2022-11-15T06:19:34;100500.31;;;24.21
45701;BMP280;36277;32.852;-116.998;2022-11-15T06:22:00;100486.69;;;24.19
45701;BMP280;36277;32.852;-116.998;2022-11-15T06:24:27;100492.41;;;24.18
45701;BMP280;36277;32.852;-116.998;2022-11-15T06:26:53;100494.13;;;24.19
45701;BMP280;36277;32.852;-116.998;2022-11-15T06:29:19;100491.38;;;24.19
45701;BMP280;36277;32.852;-116.998;2022-11-15T06:31:46;100494.13;;;24.19
45701;BMP280;36277;32.852;-116.998;2022-11-15T06:34:12;100489.66;;;24.18
45701;BMP280;36277;32.852;-116.998;2022-11-15T06:36:38;100492.56;;;24.16
45701;BMP280;36277;32.852;-116.998;2022-11-15T06:39:05;100497.25;;;24.16
45701;BMP280;36277;32.852;-116.998;2022-11-15T06:44:00;100495.03;;;24.12
45701;BMP280;36277;32.852;-116.998;2022-11-15T06:46:26;100497.97;;;24.10
45701;BMP280;36277;32.852;-116.998;2022-11-15T06:48:53;100492.47;;;24.10
45701;BMP280;36277;32.852;-116.998;2022-11-15T06:51:20;100491.78;;;24.08
45701;BMP280;36277;32.852;-116.998;2022-11-15T06:53:46;100492.00;;;24.07
45701;BMP280;36277;32.852;-116.998;2022-11-15T06:56:12;100496.63;;;24.06
45701;BMP280;36277;32.852;-116.998;2022-11-15T06:58:39;100488.72;;;24.03
45701;BMP280;36277;32.852;-116.998;2022-11-15T07:01:07;100492.53;;;24.02
45701;BMP280;36277;32.852;-116.998;2022-11-15T07:03:36;100490.81;;;24.01
45701;BMP280;36277;32.852;-116.998;2022-11-15T07:06:03;100492.91;;;23.99
45701;BMP280;36277;32.852;-116.998;2022-11-15T07:08:29;100496.88;;;23.97
45701;BMP280;36277;32.852;-116.998;2022-11-15T07:11:00;100498.78;;;23.96
45701;BMP280;36277;32.852;-116.998;2022-11-15T07:13:29;100489.84;;;23.94
45701;BMP280;36277;32.852;-116.998;2022-11-15T07:16:02;100491.94;;;23.92
45701;BMP280;36277;32.852;-116.998;2022-11-15T07:18:29;100496.09;;;23.88
45701;BMP280;36277;32.852;-116.998;2022-11-15T07:20:55;100491.78;;;23.86
45701;BMP280;36277;32.852;-116.998;2022-11-15T07:23:22;100500.25;;;23.84
45701;BMP280;36277;32.852;-116.998;2022-11-15T07:25:48;100495.09;;;23.81
45701;BMP280;36277;32.852;-116.998;2022-11-15T07:28:14;100491.69;;;23.79
45701;BMP280;36277;32.852;-116.998;2022-11-15T07:30:40;100488.22;;;23.77
45701;BMP280;36277;32.852;-116.998;2022-11-15T07:33:06;100489.25;;;23.76
45701;BMP280;36277;32.852;-116.998;2022-11-15T07:35:33;100495.81;;;23.75
45701;BMP280;36277;32.852;-116.998;2022-11-15T07:38:01;100492.88;;;23.77
45701;BMP280;36277;32.852;-116.998;2022-11-15T07:40:30;100495.81;;;23.75
45701;BMP280;36277;32.852;-116.998;2022-11-15T07:43:05;100494.09;;;23.74
45701;BMP280;36277;32.852;-116.998;2022-11-15T07:45:32;100486.38;;;23.70
45701;BMP280;36277;32.852;-116.998;2022-11-15T07:48:01;100490.16;;;23.69
45701;BMP280;36277;32.852;-116.998;2022-11-15T07:50:27;100481.22;;;23.67
45701;BMP280;36277;32.852;-116.998;2022-11-15T07:52:58;100481.41;;;23.65
45701;BMP280;36277;32.852;-116.998;2022-11-15T07:55:26;100475.72;;;23.67
45701;BMP280;36277;32.852;-116.998;2022-11-15T07:58:08;100480.38;;;23.66
45701;BMP280;36277;32.852;-116.998;2022-11-15T08:00:36;100480.22;;;23.60
45701;BMP280;36277;32.852;-116.998;2022-11-15T08:03:10;100478.34;;;23.60
45701;BMP280;36277;32.852;-116.998;2022-11-15T08:05:39;100496.28;;;23.56
45701;BMP280;36277;32.852;-116.998;2022-11-15T08:08:05;100497.69;;;23.52
45701;BMP280;36277;32.852;-116.998;2022-11-15T08:10:32;100492.53;;;23.49
45701;BMP280;36277;32.852;-116.998;2022-11-15T08:13:00;100492.72;;;23.48
45701;BMP280;36277;32.852;-116.998;2022-11-15T08:15:27;100488.41;;;23.45
45701;BMP280;36277;32.852;-116.998;2022-11-15T08:17:57;100492.25;;;23.44
45701;BMP280;36277;32.852;-116.998;2022-11-15T08:20:25;100487.09;;;23.41
45701;BMP280;36277;32.852;-116.998;2022-11-15T08:22:52;100498.47;;;23.38
45701;BMP280;36277;32.852;-116.998;2022-11-15T08:25:18;100498.47;;;23.38
45701;BMP280;36277;32.852;-116.998;2022-11-15T08:27:44;100501.56;;;23.35
45701;BMP280;36277;32.852;-116.998;2022-11-15T08:30:11;100499.16;;;23.32
45701;BMP280;36277;32.852;-116.998;2022-11-15T08:32:38;100491.94;;;23.31
45701;BMP280;36277;32.852;-116.998;2022-11-15T08:35:04;100495.38;;;23.33
45701;BMP280;36277;32.852;-116.998;2022-11-15T08:37:31;100494.69;;;23.31
45701;BMP280;36277;32.852;-116.998;2022-11-15T08:39:57;100504.88;;;23.31
45701;BMP280;36277;32.852;-116.998;2022-11-15T08:42:24;100495.06;;;23.28
45701;BMP280;36277;32.852;-116.998;2022-11-15T08:44:50;100500.75;;;23.27
45701;BMP280;36277;32.852;-116.998;2022-11-15T08:47:16;100499.88;;;23.26
45701;BMP280;36277;32.852;-116.998;2022-11-15T08:49:42;100502.84;;;23.25
45701;BMP280;36277;32.852;-116.998;2022-11-15T08:52:08;100504.03;;;23.22
45701;BMP280;36277;32.852;-116.998;2022-11-15T08:54:35;100511.59;;;23.20
45701;BMP280;36277;32.852;-116.998;2022-11-15T08:57:01;100509.88;;;23.19
45701;BMP280;36277;32.852;-116.998;2022-11-15T08:59:27;100511.59;;;23.20
45701;BMP280;36277;32.852;-116.998;2022-11-15T09:01:53;100509.41;;;23.16
45701;BMP280;36277;32.852;-116.998;2022-11-15T09:04:20;100512.16;;;23.16
45701;BMP280;36277;32.852;-116.998;2022-11-15T09:06:46;100505.13;;;23.13
45701;BMP280;36277;32.852;-116.998;2022-11-15T09:09:12;100508.22;;;23.10
45701;BMP280;36277;32.852;-116.998;2022-11-15T09:11:38;100502.88;;;23.09
45701;BMP280;36277;32.852;-116.998;2022-11-15T09:14:04;100510.47;;;23.07
45701;BMP280;36277;32.852;-116.998;2022-11-15T09:16:31;100502.34;;;23.05
45701;BMP280;36277;32.852;-116.998;2022-11-15T09:18:57;100498.25;;;23.01
45701;BMP280;36277;32.852;-116.998;2022-11-15T09:21:23;100495.47;;;23.01
45701;BMP280;36277;32.852;-116.998;2022-11-15T09:23:51;100501.00;;;23.01
45701;BMP280;36277;32.852;-116.998;2022-11-15T09:26:18;100498.25;;;23.01
45701;BMP280;36277;32.852;-116.998;2022-11-15T09:28:44;100490.34;;;22.98
45701;BMP280;36277;32.852;-116.998;2022-11-15T09:31:11;100493.28;;;22.97
45701;BMP280;36277;32.852;-116.998;2022-11-15T09:33:37;100493.44;;;22.96
45701;BMP280;36277;32.852;-116.998;2022-11-15T09:36:06;100491.56;;;22.96
45701;BMP280;36277;32.852;-116.998;2022-11-15T09:38:34;100491.72;;;22.95
45701;BMP280;36277;32.852;-116.998;2022-11-15T09:52:47;100484.06;;;22.74
45701;BMP280;36277;32.852;-116.998;2022-11-15T09:55:15;100479.41;;;22.75
45701;BMP280;36277;32.852;-116.998;2022-11-15T09:57:55;100480.09;;;22.77
45701;BMP280;36277;32.852;-116.998;2022-11-15T10:00:38;100474.94;;;22.74
45701;BMP280;36277;32.852;-116.998;2022-11-15T10:03:20;100473.22;;;22.73
45701;BMP280;36277;32.852;-116.998;2022-11-15T10:05:51;100471.84;;;22.69
45701;BMP280;36277;32.852;-116.998;2022-11-15T10:11:11;100459.50;;;22.65
45701;BMP280;36277;32.852;-116.998;2022-11-15T10:13:44;100465.19;;;22.63
45701;BMP280;36277;32.852;-116.998;2022-11-15T10:16:33;100462.06;;;22.66
45701;BMP280;36277;32.852;-116.998;2022-11-15T10:24:28;100464.69;;;22.60
45701;BMP280;36277;32.852;-116.998;2022-11-15T10:27:00;100455.75;;;22.58
45701;BMP280;36277;32.852;-116.998;2022-11-15T10:29:26;100452.31;;;22.56
45701;BMP280;36277;32.852;-116.998;2022-11-15T10:31:53;100448.53;;;22.57
45701;BMP280;36277;32.852;-116.998;2022-11-15T10:34:26;100450.25;;;22.58
45701;BMP280;36277;32.852;-116.998;2022-11-15T10:36:57;100452.50;;;22.54
45701;BMP280;36277;32.852;-116.998;2022-11-15T10:39:24;100452.84;;;22.51
45701;BMP280;36277;32.852;-116.998;2022-11-15T10:41:50;100452.84;;;22.51
45701;BMP280;36277;32.852;-116.998;2022-11-15T10:47:06;100444.75;;;22.50
45701;BMP280;36277;32.852;-116.998;2022-11-15T10:49:34;100443.38;;;22.46
45701;BMP280;36277;32.852;-116.998;2022-11-15T10:54:42;100435.66;;;22.41
45701;BMP280;36277;32.852;-116.998;2022-11-15T10:57:20;100436.53;;;22.42
45701;BMP280;36277;32.852;-116.998;2022-11-15T10:59:56;100437.72;;;22.39
45701;BMP280;36277;32.852;-116.998;2022-11-15T11:02:40;100442.53;;;22.37
45701;BMP280;36277;32.852;-116.998;2022-11-15T11:08:04;100432.19;;;22.31
45701;BMP280;36277;32.852;-116.998;2022-11-15T11:10:31;100426.22;;;22.28
45701;BMP280;36277;32.852;-116.998;2022-11-15T11:13:20;100428.63;;;22.31
45701;BMP280;36277;32.852;-116.998;2022-11-15T11:15:53;100438.25;;;22.27
45701;BMP280;36277;32.852;-116.998;2022-11-15T11:18:26;100438.59;;;22.24
45701;BMP280;36277;32.852;-116.998;2022-11-15T11:20:59;100444.97;;;22.24
45701;BMP280;36277;32.852;-116.998;2022-11-15T11:40:43;100435.53;;;22.11
45701;BMP280;36277;32.852;-116.998;2022-11-15T11:43:31;100434.50;;;22.12
45701;BMP280;36277;32.852;-116.998;2022-11-15T11:46:27;100430.38;;;22.08
45701;BMP280;36277;32.852;-116.998;2022-11-15T11:49:06;100429.69;;;22.06
45701;BMP280;36277;32.852;-116.998;2022-11-15T11:55:24;100438.13;;;21.96
45701;BMP280;36277;32.852;-116.998;2022-11-15T12:00:55;100436.22;;;21.97
45701;BMP280;36277;32.852;-116.998;2022-11-15T12:05:57;100441.69;;;21.97
45701;BMP280;36277;32.852;-116.998;2022-11-15T12:17:05;100446.88;;;21.84
45701;BMP280;36277;32.852;-116.998;2022-11-15T12:19:35;100446.53;;;21.87
45701;BMP280;36277;32.852;-116.998;2022-11-15T12:24:43;100450.31;;;21.86
45701;BMP280;36277;32.852;-116.998;2022-11-15T12:27:39;100449.63;;;21.84
45701;BMP280;36277;32.852;-116.998;2022-11-15T12:30:17;100445.50;;;21.80
45701;BMP280;36277;32.852;-116.998;2022-11-15T12:32:58;100461.78;;;21.82
45701;BMP280;36277;32.852;-116.998;2022-11-15T12:35:57;100457.00;;;21.76
45701;BMP280;36277;32.852;-116.998;2022-11-15T12:38:57;100459.06;;;21.74
45701;BMP280;36277;32.852;-116.998;2022-11-15T12:41:29;100458.38;;;21.72
45701;BMP280;36277;32.852;-116.998;2022-11-15T12:43:56;100464.72;;;21.72
45701;BMP280;36277;32.852;-116.998;2022-11-15T12:49:02;100465.41;;;21.74
45701;BMP280;36277;32.852;-116.998;2022-11-15T13:00:01;100455.59;;;21.64
45701;BMP280;36277;32.852;-116.998;2022-11-15T13:02:36;100457.50;;;21.63
45701;BMP280;36277;32.852;-116.998;2022-11-15T13:22:47;100459.19;;;21.56
45701;BMP280;36277;32.852;-116.998;2022-11-15T13:27:52;100470.84;;;21.50
45701;BMP280;36277;32.852;-116.998;2022-11-15T13:30:24;100472.22;;;21.54
45701;BMP280;36277;32.852;-116.998;2022-11-15T13:32:51;100472.56;;;21.51
45701;BMP280;36277;32.852;-116.998;2022-11-15T13:35:26;100476.69;;;21.55
45701;BMP280;36277;32.852;-116.998;2022-11-15T13:37:54;100471.72;;;21.51
45701;BMP280;36277;32.852;-116.998;2022-11-15T13:40:28;100473.44;;;21.52
45701;BMP280;36277;32.852;-116.998;2022-11-15T13:42:57;100470.13;;;21.48
45701;BMP280;36277;32.852;-116.998;2022-11-15T13:45:24;100468.41;;;21.47
45701;BMP280;36277;32.852;-116.998;2022-11-15T13:47:57;100472.19;;;21.46
45701;BMP280;36277;32.852;-116.998;2022-11-15T13:50:31;100467.72;;;21.45
45701;BMP280;36277;32.852;-116.998;2022-11-15T13:53:01;100480.63;;;21.45
45701;BMP280;36277;32.852;-116.998;2022-11-15T13:55:30;100470.28;;;21.39
45701;BMP280;36277;32.852;-116.998;2022-11-15T13:58:03;100466.72;;;21.38
45701;BMP280;36277;32.852;-116.998;2022-11-15T14:03:26;100464.28;;;21.35
45701;BMP280;36277;32.852;-116.998;2022-11-15T14:06:12;100472.53;;;21.35
45701;BMP280;36277;32.852;-116.998;2022-11-15T14:08:41;100482.13;;;21.31
45701;BMP280;36277;32.852;-116.998;2022-11-15T14:13:37;100474.22;;;21.28
45701;BMP280;36277;32.852;-116.998;2022-11-15T14:16:15;100480.41;;;21.30
45701;BMP280;36277;32.852;-116.998;2022-11-15T14:18:52;100473.19;;;21.29
45701;BMP280;36277;32.852;-116.998;2022-11-15T14:21:19;100471.66;;;21.27
45701;BMP280;36277;32.852;-116.998;2022-11-15T14:23:46;100470.97;;;21.25
45701;BMP280;36277;32.852;-116.998;2022-11-15T14:26:34;100476.44;;;21.25
45701;BMP280;36277;32.852;-116.998;2022-11-15T14:29:23;100473.84;;;21.23
45701;BMP280;36277;32.852;-116.998;2022-11-15T14:31:49;100473.34;;;21.20
45701;BMP280;36277;32.852;-116.998;2022-11-15T14:34:15;100477.81;;;21.21
45701;BMP280;36277;32.852;-116.998;2022-11-15T14:36:42;100464.22;;;21.19
45701;BMP280;36277;32.852;-116.998;2022-11-15T14:39:08;100474.19;;;21.20
45701;BMP280;36277;32.852;-116.998;2022-11-15T14:41:36;100480.69;;;21.19
45701;BMP280;36277;32.852;-116.998;2022-11-15T14:44:06;100474.50;;;21.17
45701;BMP280;36277;32.852;-116.998;2022-11-15T14:46:32;100470.03;;;21.16
45701;BMP280;36277;32.852;-116.998;2022-11-15T14:48:58;100483.09;;;21.14
45701;BMP280;36277;32.852;-116.998;2022-11-15T14:51:25;100474.19;;;21.12
45701;BMP280;36277;32.852;-116.998;2022-11-15T14:53:51;100482.56;;;21.11
45701;BMP280;36277;32.852;-116.998;2022-11-15T14:56:18;100485.50;;;21.09
45701;BMP280;36277;32.852;-116.998;2022-11-15T14:58:44;100481.88;;;21.09
45701;BMP280;36277;32.852;-116.998;2022-11-15T15:01:23;100481.72;;;21.10
45701;BMP280;36277;32.852;-116.998;2022-11-15T15:03:51;100481.50;;;21.04
45701;BMP280;36277;32.852;-116.998;2022-11-15T15:06:18;100484.09;;;21.05
45701;BMP280;36277;32.852;-116.998;2022-11-15T15:08:45;100476.56;;;21.07
45701;BMP280;36277;32.852;-116.998;2022-11-15T15:11:20;100485.63;;;21.08
45701;BMP280;36277;32.852;-116.998;2022-11-15T15:13:46;100493.03;;;21.07
45701;BMP280;36277;32.852;-116.998;2022-11-15T15:16:12;100489.41;;;21.07
45701;BMP280;36277;32.852;-116.998;2022-11-15T15:18:39;100493.16;;;21.06
45701;BMP280;36277;32.852;-116.998;2022-11-15T15:21:19;100483.91;;;21.07
45701;BMP280;36277;32.852;-116.998;2022-11-15T15:23:46;100489.72;;;21.04
45701;BMP280;36277;32.852;-116.998;2022-11-15T15:26:12;100495.06;;;21.05
45701;BMP280;36277;32.852;-116.998;2022-11-15T15:28:38;100495.06;;;21.05
45701;BMP280;36277;32.852;-116.998;2022-11-15T15:31:08;100500.22;;;21.08
45701;BMP280;36277;32.852;-116.998;2022-11-15T15:33:34;100493.69;;;21.01
45701;BMP280;36277;32.852;-116.998;2022-11-15T15:36:00;100488.00;;;21.03
45701;BMP280;36277;32.852;-116.998;2022-11-15T15:38:27;100491.63;;;21.03
45701;BMP280;36277;32.852;-116.998;2022-11-15T15:40:53;100494.38;;;21.03
45701;BMP280;36277;32.852;-116.998;2022-11-15T15:43:20;100493.50;;;21.03
45701;BMP280;36277;32.852;-116.998;2022-11-15T15:45:46;100497.31;;;21.02
45701;BMP280;36277;32.852;-116.998;2022-11-15T15:48:14;100495.22;;;21.04
45701;BMP280;36277;32.852;-116.998;2022-11-15T15:50:42;100495.41;;;21.02